Furstenfeld, Austria
Current Conditions -  °F | °C
As of 2:20 AM on Thursday 29 Jan 2015 (Local Time) from LOWG Reporting Station
Clear Clear  
Wind Chill: 25°   Ceiling: Unl
Heat Index: 25°   Visibility: 6mi
Dew Point: 23°   Wind: 2mph
Humidity: 93%   Direction: 330°NNW
Pressure: 29.68"   Gusts: NA
Location:  47.05°N, 16.08°E
Report Text: LOWG 290020Z AUTO 33002KT CAVOK M04/M05 Q1005
Loading
Personal Weather Stations






























Interactive Weather Map New forecast layout! Learn more

10-Day Weather Forecast

Advertisements
Track Severe Weather on mobile